sensor_id;sensor_type;location;lat;lon;timestamp;P1;durP1;ratioP1;P2;durP2;ratioP2
59390;SDS011;53405;57.012;40.984;2022-11-21T00:00:21;14.43;;;6.15;;
59390;SDS011;53405;57.012;40.984;2022-11-21T00:03:09;13.95;;;6.63;;
59390;SDS011;53405;57.012;40.984;2022-11-21T00:05:57;13.95;;;5.93;;
59390;SDS011;53405;57.012;40.984;2022-11-21T00:08:45;13.15;;;5.93;;
59390;SDS011;53405;57.012;40.984;2022-11-21T00:11:33;13.55;;;6.22;;
59390;SDS011;53405;57.012;40.984;2022-11-21T00:14:20;14.40;;;6.68;;
59390;SDS011;53405;57.012;40.984;2022-11-21T00:17:08;11.95;;;5.57;;
59390;SDS011;53405;57.012;40.984;2022-11-21T00:19:56;15.63;;;6.30;;
59390;SDS011;53405;57.012;40.984;2022-11-21T00:22:44;15.40;;;6.13;;
59390;SDS011;53405;57.012;40.984;2022-11-21T00:25:31;13.50;;;5.90;;
59390;SDS011;53405;57.012;40.984;2022-11-21T00:28:19;13.07;;;5.57;;
59390;SDS011;53405;57.012;40.984;2022-11-21T00:31:06;14.25;;;6.20;;
59390;SDS011;53405;57.012;40.984;2022-11-21T00:33:54;13.90;;;6.20;;
59390;SDS011;53405;57.012;40.984;2022-11-21T00:36:41;12.68;;;5.72;;
59390;SDS011;53405;57.012;40.984;2022-11-21T00:39:29;15.38;;;7.13;;
59390;SDS011;53405;57.012;40.984;2022-11-21T00:42:16;12.90;;;6.07;;
59390;SDS011;53405;57.012;40.984;2022-11-21T00:45:04;12.25;;;5.70;;
59390;SDS011;53405;57.012;40.984;2022-11-21T00:47:52;14.38;;;6.15;;
59390;SDS011;53405;57.012;40.984;2022-11-21T00:50:40;12.00;;;5.78;;
59390;SDS011;53405;57.012;40.984;2022-11-21T00:53:28;12.95;;;5.72;;
59390;SDS011;53405;57.012;40.984;2022-11-21T00:56:16;11.35;;;5.30;;
59390;SDS011;53405;57.012;40.984;2022-11-21T00:59:03;13.32;;;5.75;;
59390;SDS011;53405;57.012;40.984;2022-11-21T01:01:51;15.77;;;7.03;;
59390;SDS011;53405;57.012;40.984;2022-11-21T01:04:38;12.98;;;5.57;;
59390;SDS011;53405;57.012;40.984;2022-11-21T01:07:26;13.48;;;6.43;;
59390;SDS011;53405;57.012;40.984;2022-11-21T01:10:13;13.63;;;6.28;;
59390;SDS011;53405;57.012;40.984;2022-11-21T01:13:01;15.70;;;6.22;;
59390;SDS011;53405;57.012;40.984;2022-11-21T01:15:50;15.35;;;6.38;;
59390;SDS011;53405;57.012;40.984;2022-11-21T01:18:37;13.68;;;6.38;;
59390;SDS011;53405;57.012;40.984;2022-11-21T01:21:26;15.05;;;6.65;;
59390;SDS011;53405;57.012;40.984;2022-11-21T01:24:15;15.48;;;6.72;;
59390;SDS011;53405;57.012;40.984;2022-11-21T01:27:02;15.77;;;6.40;;
59390;SDS011;53405;57.012;40.984;2022-11-21T01:29:50;15.40;;;6.90;;
59390;SDS011;53405;57.012;40.984;2022-11-21T01:32:38;16.17;;;6.82;;
59390;SDS011;53405;57.012;40.984;2022-11-21T01:35:26;17.15;;;7.28;;
59390;SDS011;53405;57.012;40.984;2022-11-21T01:38:13;17.80;;;6.78;;
59390;SDS011;53405;57.012;40.984;2022-11-21T01:41:01;14.43;;;6.82;;
59390;SDS011;53405;57.012;40.984;2022-11-21T01:43:48;16.70;;;6.47;;
59390;SDS011;53405;57.012;40.984;2022-11-21T01:46:37;15.65;;;6.85;;
59390;SDS011;53405;57.012;40.984;2022-11-21T01:52:20;15.52;;;6.47;;
59390;SDS011;53405;57.012;40.984;2022-11-21T01:55:17;15.52;;;6.65;;
59390;SDS011;53405;57.012;40.984;2022-11-21T01:58:04;14.13;;;6.35;;
59390;SDS011;53405;57.012;40.984;2022-11-21T02:00:52;16.50;;;6.72;;
59390;SDS011;53405;57.012;40.984;2022-11-21T02:03:39;15.75;;;7.18;;
59390;SDS011;53405;57.012;40.984;2022-11-21T02:06:29;18.63;;;7.40;;
59390;SDS011;53405;57.012;40.984;2022-11-21T02:09:19;16.70;;;7.85;;
59390;SDS011;53405;57.012;40.984;2022-11-21T02:12:09;16.77;;;7.38;;
59390;SDS011;53405;57.012;40.984;2022-11-21T02:15:23;15.88;;;7.10;;
59390;SDS011;53405;57.012;40.984;2022-11-21T02:18:13;17.38;;;6.82;;
59390;SDS011;53405;57.012;40.984;2022-11-21T02:21:26;17.25;;;7.03;;
59390;SDS011;53405;57.012;40.984;2022-11-21T02:27:25;17.15;;;8.07;;
59390;SDS011;53405;57.012;40.984;2022-11-21T02:30:13;16.73;;;7.00;;
59390;SDS011;53405;57.012;40.984;2022-11-21T02:33:02;16.58;;;6.55;;
59390;SDS011;53405;57.012;40.984;2022-11-21T02:35:57;17.80;;;7.70;;
59390;SDS011;53405;57.012;40.984;2022-11-21T02:38:46;16.95;;;7.40;;
59390;SDS011;53405;57.012;40.984;2022-11-21T02:41:34;15.60;;;7.38;;
59390;SDS011;53405;57.012;40.984;2022-11-21T02:44:37;18.23;;;7.60;;
59390;SDS011;53405;57.012;40.984;2022-11-21T02:47:35;16.90;;;7.70;;
59390;SDS011;53405;57.012;40.984;2022-11-21T02:50:26;17.58;;;7.90;;
59390;SDS011;53405;57.012;40.984;2022-11-21T02:53:16;16.85;;;7.65;;
59390;SDS011;53405;57.012;40.984;2022-11-21T02:56:05;17.27;;;8.50;;
59390;SDS011;53405;57.012;40.984;2022-11-21T02:58:52;18.95;;;8.25;;
59390;SDS011;53405;57.012;40.984;2022-11-21T03:01:40;18.42;;;8.60;;
59390;SDS011;53405;57.012;40.984;2022-11-21T03:04:27;19.05;;;9.02;;
59390;SDS011;53405;57.012;40.984;2022-11-21T03:07:15;20.58;;;8.32;;
59390;SDS011;53405;57.012;40.984;2022-11-21T03:10:03;18.35;;;6.88;;
59390;SDS011;53405;57.012;40.984;2022-11-21T03:12:51;17.70;;;8.25;;
59390;SDS011;53405;57.012;40.984;2022-11-21T03:15:46;20.75;;;8.05;;
59390;SDS011;53405;57.012;40.984;2022-11-21T03:18:34;17.25;;;7.35;;
59390;SDS011;53405;57.012;40.984;2022-11-21T03:21:21;16.05;;;7.63;;
59390;SDS011;53405;57.012;40.984;2022-11-21T03:24:09;20.88;;;8.70;;
59390;SDS011;53405;57.012;40.984;2022-11-21T03:26:56;17.50;;;7.55;;
59390;SDS011;53405;57.012;40.984;2022-11-21T03:29:45;17.77;;;7.90;;
59390;SDS011;53405;57.012;40.984;2022-11-21T03:32:32;20.40;;;7.80;;
59390;SDS011;53405;57.012;40.984;2022-11-21T03:35:19;16.48;;;7.53;;
59390;SDS011;53405;57.012;40.984;2022-11-21T03:38:07;17.63;;;8.10;;
59390;SDS011;53405;57.012;40.984;2022-11-21T03:40:54;19.48;;;9.23;;
59390;SDS011;53405;57.012;40.984;2022-11-21T03:43:42;19.52;;;8.00;;
59390;SDS011;53405;57.012;40.984;2022-11-21T03:46:31;19.85;;;8.63;;
59390;SDS011;53405;57.012;40.984;2022-11-21T03:49:23;18.63;;;8.85;;
59390;SDS011;53405;57.012;40.984;2022-11-21T03:52:11;16.73;;;8.52;;
59390;SDS011;53405;57.012;40.984;2022-11-21T03:54:58;19.52;;;8.50;;
59390;SDS011;53405;57.012;40.984;2022-11-21T03:57:45;19.58;;;8.60;;
59390;SDS011;53405;57.012;40.984;2022-11-21T04:00:33;22.95;;;9.80;;
59390;SDS011;53405;57.012;40.984;2022-11-21T04:03:21;17.70;;;8.80;;
59390;SDS011;53405;57.012;40.984;2022-11-21T04:06:09;19.00;;;7.95;;
59390;SDS011;53405;57.012;40.984;2022-11-21T04:11:45;17.30;;;7.57;;
59390;SDS011;53405;57.012;40.984;2022-11-21T04:14:32;15.70;;;7.28;;
59390;SDS011;53405;57.012;40.984;2022-11-21T04:17:20;19.95;;;8.30;;
59390;SDS011;53405;57.012;40.984;2022-11-21T04:20:08;14.88;;;8.27;;
59390;SDS011;53405;57.012;40.984;2022-11-21T04:22:56;19.73;;;7.93;;
59390;SDS011;53405;57.012;40.984;2022-11-21T04:25:43;18.13;;;8.68;;
59390;SDS011;53405;57.012;40.984;2022-11-21T04:28:31;18.50;;;6.97;;
59390;SDS011;53405;57.012;40.984;2022-11-21T04:31:18;15.07;;;7.30;;
59390;SDS011;53405;57.012;40.984;2022-11-21T04:34:06;17.60;;;7.22;;
59390;SDS011;53405;57.012;40.984;2022-11-21T04:36:54;20.02;;;8.57;;
59390;SDS011;53405;57.012;40.984;2022-11-21T04:39:41;16.77;;;7.75;;
59390;SDS011;53405;57.012;40.984;2022-11-21T04:42:29;19.20;;;7.75;;
59390;SDS011;53405;57.012;40.984;2022-11-21T04:45:16;17.20;;;7.65;;
59390;SDS011;53405;57.012;40.984;2022-11-21T04:48:04;17.92;;;7.75;;
59390;SDS011;53405;57.012;40.984;2022-11-21T04:50:52;15.75;;;6.68;;
59390;SDS011;53405;57.012;40.984;2022-11-21T04:53:39;20.77;;;7.90;;
59390;SDS011;53405;57.012;40.984;2022-11-21T04:56:28;22.52;;;8.38;;
59390;SDS011;53405;57.012;40.984;2022-11-21T04:59:16;17.95;;;8.00;;
59390;SDS011;53405;57.012;40.984;2022-11-21T05:02:04;16.83;;;7.45;;
59390;SDS011;53405;57.012;40.984;2022-11-21T05:04:51;19.17;;;7.68;;
59390;SDS011;53405;57.012;40.984;2022-11-21T05:07:39;15.60;;;7.30;;
59390;SDS011;53405;57.012;40.984;2022-11-21T05:10:26;18.98;;;7.68;;
59390;SDS011;53405;57.012;40.984;2022-11-21T05:13:14;20.38;;;8.68;;
59390;SDS011;53405;57.012;40.984;2022-11-21T05:16:07;15.98;;;6.60;;
59390;SDS011;53405;57.012;40.984;2022-11-21T05:18:55;17.75;;;8.18;;
59390;SDS011;53405;57.012;40.984;2022-11-21T05:21:42;19.58;;;8.38;;
59390;SDS011;53405;57.012;40.984;2022-11-21T05:24:29;17.52;;;7.60;;
59390;SDS011;53405;57.012;40.984;2022-11-21T05:27:17;22.27;;;8.85;;
59390;SDS011;53405;57.012;40.984;2022-11-21T05:30:05;21.00;;;8.63;;
59390;SDS011;53405;57.012;40.984;2022-11-21T05:32:52;21.33;;;9.15;;
59390;SDS011;53405;57.012;40.984;2022-11-21T05:35:40;25.88;;;10.75;;
59390;SDS011;53405;57.012;40.984;2022-11-21T05:38:29;20.30;;;8.35;;
59390;SDS011;53405;57.012;40.984;2022-11-21T05:41:16;20.33;;;8.63;;
59390;SDS011;53405;57.012;40.984;2022-11-21T05:44:04;28.85;;;12.35;;
59390;SDS011;53405;57.012;40.984;2022-11-21T05:46:51;17.88;;;8.27;;
59390;SDS011;53405;57.012;40.984;2022-11-21T05:49:39;22.20;;;9.30;;
59390;SDS011;53405;57.012;40.984;2022-11-21T05:52:27;23.90;;;9.10;;
59390;SDS011;53405;57.012;40.984;2022-11-21T05:55:14;25.35;;;10.13;;
59390;SDS011;53405;57.012;40.984;2022-11-21T05:58:02;22.15;;;8.63;;
59390;SDS011;53405;57.012;40.984;2022-11-21T06:00:54;19.23;;;8.95;;
59390;SDS011;53405;57.012;40.984;2022-11-21T06:03:45;18.08;;;8.27;;
59390;SDS011;53405;57.012;40.984;2022-11-21T06:06:33;19.13;;;8.63;;
59390;SDS011;53405;57.012;40.984;2022-11-21T06:09:20;25.80;;;10.20;;
59390;SDS011;53405;57.012;40.984;2022-11-21T06:12:08;28.02;;;9.98;;
59390;SDS011;53405;57.012;40.984;2022-11-21T06:14:55;26.80;;;10.48;;
59390;SDS011;53405;57.012;40.984;2022-11-21T06:17:43;26.30;;;9.88;;
59390;SDS011;53405;57.012;40.984;2022-11-21T06:20:30;29.73;;;12.20;;
59390;SDS011;53405;57.012;40.984;2022-11-21T06:23:18;25.30;;;9.52;;
59390;SDS011;53405;57.012;40.984;2022-11-21T06:26:06;22.52;;;8.88;;
59390;SDS011;53405;57.012;40.984;2022-11-21T06:28:58;24.02;;;9.60;;
59390;SDS011;53405;57.012;40.984;2022-11-21T06:31:45;22.70;;;9.38;;
59390;SDS011;53405;57.012;40.984;2022-11-21T06:34:33;20.17;;;9.30;;
59390;SDS011;53405;57.012;40.984;2022-11-21T06:37:20;26.65;;;10.13;;
59390;SDS011;53405;57.012;40.984;2022-11-21T06:40:08;23.48;;;8.88;;
59390;SDS011;53405;57.012;40.984;2022-11-21T06:42:56;25.45;;;9.00;;
59390;SDS011;53405;57.012;40.984;2022-11-21T06:45:43;20.50;;;8.82;;
59390;SDS011;53405;57.012;40.984;2022-11-21T06:48:31;22.65;;;8.98;;
59390;SDS011;53405;57.012;40.984;2022-11-21T06:51:20;20.67;;;8.82;;
59390;SDS011;53405;57.012;40.984;2022-11-21T06:54:09;23.20;;;10.05;;
59390;SDS011;53405;57.012;40.984;2022-11-21T06:56:59;20.85;;;9.30;;
59390;SDS011;53405;57.012;40.984;2022-11-21T06:59:47;21.20;;;9.23;;
59390;SDS011;53405;57.012;40.984;2022-11-21T07:02:34;25.25;;;9.73;;
59390;SDS011;53405;57.012;40.984;2022-11-21T07:05:22;21.73;;;9.38;;
59390;SDS011;53405;57.012;40.984;2022-11-21T07:08:09;30.25;;;10.57;;
59390;SDS011;53405;57.012;40.984;2022-11-21T07:11:08;26.02;;;10.13;;
59390;SDS011;53405;57.012;40.984;2022-11-21T07:14:16;25.42;;;11.43;;
59390;SDS011;53405;57.012;40.984;2022-11-21T07:17:03;24.93;;;9.63;;
59390;SDS011;53405;57.012;40.984;2022-11-21T07:19:51;25.40;;;10.82;;
59390;SDS011;53405;57.012;40.984;2022-11-21T07:22:38;26.70;;;10.90;;
59390;SDS011;53405;57.012;40.984;2022-11-21T07:25:26;24.10;;;9.63;;
59390;SDS011;53405;57.012;40.984;2022-11-21T07:28:16;25.98;;;10.15;;
59390;SDS011;53405;57.012;40.984;2022-11-21T07:31:03;25.45;;;10.82;;
59390;SDS011;53405;57.012;40.984;2022-11-21T07:33:54;28.40;;;11.40;;
59390;SDS011;53405;57.012;40.984;2022-11-21T07:36:42;28.30;;;11.18;;
59390;SDS011;53405;57.012;40.984;2022-11-21T07:39:29;25.95;;;10.75;;
59390;SDS011;53405;57.012;40.984;2022-11-21T07:42:17;29.13;;;11.10;;
59390;SDS011;53405;57.012;40.984;2022-11-21T07:45:05;27.65;;;11.20;;
59390;SDS011;53405;57.012;40.984;2022-11-21T07:47:58;28.63;;;10.48;;
59390;SDS011;53405;57.012;40.984;2022-11-21T07:50:47;27.92;;;12.35;;
59390;SDS011;53405;57.012;40.984;2022-11-21T07:53:34;38.65;;;15.52;;
59390;SDS011;53405;57.012;40.984;2022-11-21T07:56:22;31.35;;;13.43;;
59390;SDS011;53405;57.012;40.984;2022-11-21T07:59:12;26.13;;;10.95;;
59390;SDS011;53405;57.012;40.984;2022-11-21T08:02:00;30.42;;;11.90;;
59390;SDS011;53405;57.012;40.984;2022-11-21T08:04:49;28.08;;;10.45;;
59390;SDS011;53405;57.012;40.984;2022-11-21T08:07:37;28.55;;;10.32;;
59390;SDS011;53405;57.012;40.984;2022-11-21T08:10:25;28.20;;;11.95;;
59390;SDS011;53405;57.012;40.984;2022-11-21T08:13:12;30.05;;;10.82;;
59390;SDS011;53405;57.012;40.984;2022-11-21T08:16:03;28.10;;;10.48;;
59390;SDS011;53405;57.012;40.984;2022-11-21T08:18:51;25.15;;;10.15;;
59390;SDS011;53405;57.012;40.984;2022-11-21T08:21:39;32.05;;;10.60;;
59390;SDS011;53405;57.012;40.984;2022-11-21T08:24:26;28.85;;;11.50;;
59390;SDS011;53405;57.012;40.984;2022-11-21T08:27:14;25.40;;;10.25;;
59390;SDS011;53405;57.012;40.984;2022-11-21T08:30:07;30.13;;;11.38;;
59390;SDS011;53405;57.012;40.984;2022-11-21T08:32:57;36.63;;;15.05;;
59390;SDS011;53405;57.012;40.984;2022-11-21T08:35:45;30.00;;;12.07;;
59390;SDS011;53405;57.012;40.984;2022-11-21T08:38:32;32.20;;;11.82;;
59390;SDS011;53405;57.012;40.984;2022-11-21T08:41:20;31.50;;;11.93;;
59390;SDS011;53405;57.012;40.984;2022-11-21T08:44:26;34.08;;;12.68;;
59390;SDS011;53405;57.012;40.984;2022-11-21T08:47:15;39.15;;;14.90;;
59390;SDS011;53405;57.012;40.984;2022-11-21T08:50:02;39.65;;;15.32;;
59390;SDS011;53405;57.012;40.984;2022-11-21T08:52:59;45.35;;;16.90;;
59390;SDS011;53405;57.012;40.984;2022-11-21T08:55:47;36.75;;;15.20;;
59390;SDS011;53405;57.012;40.984;2022-11-21T08:58:35;31.77;;;11.80;;
59390;SDS011;53405;57.012;40.984;2022-11-21T09:01:23;31.08;;;12.52;;
59390;SDS011;53405;57.012;40.984;2022-11-21T09:04:10;32.90;;;11.48;;
59390;SDS011;53405;57.012;40.984;2022-11-21T09:06:58;30.08;;;11.55;;
59390;SDS011;53405;57.012;40.984;2022-11-21T09:09:46;33.22;;;13.13;;
59390;SDS011;53405;57.012;40.984;2022-11-21T09:12:34;27.83;;;10.55;;
59390;SDS011;53405;57.012;40.984;2022-11-21T09:15:21;30.95;;;12.30;;
59390;SDS011;53405;57.012;40.984;2022-11-21T09:18:27;29.30;;;10.18;;
59390;SDS011;53405;57.012;40.984;2022-11-21T09:21:16;28.95;;;11.32;;
59390;SDS011;53405;57.012;40.984;2022-11-21T09:24:05;27.77;;;10.90;;
59390;SDS011;53405;57.012;40.984;2022-11-21T09:26:52;27.35;;;11.27;;
59390;SDS011;53405;57.012;40.984;2022-11-21T09:29:40;36.40;;;12.80;;
59390;SDS011;53405;57.012;40.984;2022-11-21T09:32:27;31.95;;;12.60;;
59390;SDS011;53405;57.012;40.984;2022-11-21T09:35:15;31.52;;;11.68;;
59390;SDS011;53405;57.012;40.984;2022-11-21T09:38:03;31.20;;;12.15;;
59390;SDS011;53405;57.012;40.984;2022-11-21T09:40:50;29.95;;;11.43;;
59390;SDS011;53405;57.012;40.984;2022-11-21T09:46:46;28.73;;;11.00;;
59390;SDS011;53405;57.012;40.984;2022-11-21T09:49:39;32.05;;;11.52;;
59390;SDS011;53405;57.012;40.984;2022-11-21T09:52:31;30.40;;;12.07;;
59390;SDS011;53405;57.012;40.984;2022-11-21T10:01:18;28.30;;;11.27;;
59390;SDS011;53405;57.012;40.984;2022-11-21T10:04:06;31.60;;;11.88;;
59390;SDS011;53405;57.012;40.984;2022-11-21T10:06:59;29.95;;;12.35;;
59390;SDS011;53405;57.012;40.984;2022-11-21T10:16:59;32.72;;;11.57;;
59390;SDS011;53405;57.012;40.984;2022-11-21T10:23:38;28.08;;;11.57;;
59390;SDS011;53405;57.012;40.984;2022-11-21T10:32:26;30.45;;;11.73;;
59390;SDS011;53405;57.012;40.984;2022-11-21T10:35:40;28.65;;;12.02;;
59390;SDS011;53405;57.012;40.984;2022-11-21T10:38:33;31.17;;;12.38;;
59390;SDS011;53405;57.012;40.984;2022-11-21T10:44:45;37.90;;;13.95;;
59390;SDS011;53405;57.012;40.984;2022-11-21T10:47:51;34.25;;;13.15;;
59390;SDS011;53405;57.012;40.984;2022-11-21T10:54:05;33.10;;;13.63;;
59390;SDS011;53405;57.012;40.984;2022-11-21T10:57:13;37.17;;;14.05;;
59390;SDS011;53405;57.012;40.984;2022-11-21T11:03:02;40.63;;;13.90;;
59390;SDS011;53405;57.012;40.984;2022-11-21T11:05:53;29.98;;;11.75;;
59390;SDS011;53405;57.012;40.984;2022-11-21T11:08:49;33.03;;;12.38;;
59390;SDS011;53405;57.012;40.984;2022-11-21T11:11:38;34.80;;;13.63;;
59390;SDS011;53405;57.012;40.984;2022-11-21T11:14:27;31.48;;;13.77;;
59390;SDS011;53405;57.012;40.984;2022-11-21T11:17:25;34.05;;;12.90;;
59390;SDS011;53405;57.012;40.984;2022-11-21T11:26:21;33.17;;;12.45;;
59390;SDS011;53405;57.012;40.984;2022-11-21T11:29:24;42.33;;;16.25;;
59390;SDS011;53405;57.012;40.984;2022-11-21T11:32:14;32.22;;;12.88;;
59390;SDS011;53405;57.012;40.984;2022-11-21T11:35:09;30.33;;;12.02;;
59390;SDS011;53405;57.012;40.984;2022-11-21T11:38:08;29.60;;;11.82;;
59390;SDS011;53405;57.012;40.984;2022-11-21T11:40:59;31.25;;;12.98;;
59390;SDS011;53405;57.012;40.984;2022-11-21T11:43:59;31.27;;;13.65;;
59390;SDS011;53405;57.012;40.984;2022-11-21T11:47:17;31.08;;;11.93;;
59390;SDS011;53405;57.012;40.984;2022-11-21T11:53:37;31.95;;;11.55;;
59390;SDS011;53405;57.012;40.984;2022-11-21T11:56:29;36.17;;;13.38;;
59390;SDS011;53405;57.012;40.984;2022-11-21T11:59:27;29.60;;;11.52;;
59390;SDS011;53405;57.012;40.984;2022-11-21T12:02:25;28.65;;;11.27;;
59390;SDS011;53405;57.012;40.984;2022-11-21T12:05:24;30.10;;;12.18;;
59390;SDS011;53405;57.012;40.984;2022-11-21T12:08:15;32.92;;;12.60;;
59390;SDS011;53405;57.012;40.984;2022-11-21T12:11:52;28.60;;;10.82;;
59390;SDS011;53405;57.012;40.984;2022-11-21T12:21:12;29.23;;;12.13;;
59390;SDS011;53405;57.012;40.984;2022-11-21T12:24:01;32.40;;;11.65;;
59390;SDS011;53405;57.012;40.984;2022-11-21T12:30:24;36.28;;;14.20;;
59390;SDS011;53405;57.012;40.984;2022-11-21T12:33:41;30.38;;;11.50;;
59390;SDS011;53405;57.012;40.984;2022-11-21T12:43:28;25.95;;;10.57;;
59390;SDS011;53405;57.012;40.984;2022-11-21T12:50:17;32.25;;;10.90;;
59390;SDS011;53405;57.012;40.984;2022-11-21T12:53:37;30.90;;;11.77;;
59390;SDS011;53405;57.012;40.984;2022-11-21T12:57:14;36.58;;;14.65;;
59390;SDS011;53405;57.012;40.984;2022-11-21T13:06:21;34.80;;;14.63;;
59390;SDS011;53405;57.012;40.984;2022-11-21T13:09:12;31.05;;;11.23;;
59390;SDS011;53405;57.012;40.984;2022-11-21T13:12:05;32.97;;;13.18;;
59390;SDS011;53405;57.012;40.984;2022-11-21T13:18:38;29.02;;;12.02;;
59390;SDS011;53405;57.012;40.984;2022-11-21T13:21:39;29.55;;;10.90;;
59390;SDS011;53405;57.012;40.984;2022-11-21T13:27:31;31.08;;;11.82;;
59390;SDS011;53405;57.012;40.984;2022-11-21T13:30:24;32.00;;;11.75;;
59390;SDS011;53405;57.012;40.984;2022-11-21T13:42:06;27.63;;;11.25;;
59390;SDS011;53405;57.012;40.984;2022-11-21T13:48:52;26.30;;;10.95;;
59390;SDS011;53405;57.012;40.984;2022-11-21T13:51:51;31.53;;;12.07;;
59390;SDS011;53405;57.012;40.984;2022-11-21T14:01:14;31.42;;;11.40;;
59390;SDS011;53405;57.012;40.984;2022-11-21T14:07:47;29.02;;;11.85;;
59390;SDS011;53405;57.012;40.984;2022-11-21T14:10:35;26.13;;;11.07;;
59390;SDS011;53405;57.012;40.984;2022-11-21T14:13:29;28.55;;;11.52;;
59390;SDS011;53405;57.012;40.984;2022-11-21T14:16:31;27.48;;;11.10;;
59390;SDS011;53405;57.012;40.984;2022-11-21T14:19:27;30.27;;;11.20;;
59390;SDS011;53405;57.012;40.984;2022-11-21T14:22:33;24.70;;;11.23;;
59390;SDS011;53405;57.012;40.984;2022-11-21T14:28:36;33.05;;;12.95;;
59390;SDS011;53405;57.012;40.984;2022-11-21T14:31:24;32.13;;;14.77;;
59390;SDS011;53405;57.012;40.984;2022-11-21T14:34:11;25.38;;;11.57;;
59390;SDS011;53405;57.012;40.984;2022-11-21T14:37:03;28.42;;;12.75;;
59390;SDS011;53405;57.012;40.984;2022-11-21T14:39:52;28.58;;;11.93;;
59390;SDS011;53405;57.012;40.984;2022-11-21T14:42:42;31.98;;;13.00;;
59390;SDS011;53405;57.012;40.984;2022-11-21T14:45:30;28.45;;;10.90;;
59390;SDS011;53405;57.012;40.984;2022-11-21T14:48:23;29.55;;;11.55;;
59390;SDS011;53405;57.012;40.984;2022-11-21T14:51:15;31.15;;;14.18;;
59390;SDS011;53405;57.012;40.984;2022-11-21T14:54:09;30.55;;;13.93;;
59390;SDS011;53405;57.012;40.984;2022-11-21T14:57:02;26.30;;;11.40;;
59390;SDS011;53405;57.012;40.984;2022-11-21T14:59:52;27.95;;;11.90;;
59390;SDS011;53405;57.012;40.984;2022-11-21T15:02:42;27.35;;;10.80;;
59390;SDS011;53405;57.012;40.984;2022-11-21T15:05:32;27.80;;;11.75;;
59390;SDS011;53405;57.012;40.984;2022-11-21T15:08:40;30.00;;;12.27;;
59390;SDS011;53405;57.012;40.984;2022-11-21T15:14:56;27.40;;;11.68;;
59390;SDS011;53405;57.012;40.984;2022-11-21T15:17:51;28.25;;;12.43;;
59390;SDS011;53405;57.012;40.984;2022-11-21T15:21:04;29.38;;;11.85;;
59390;SDS011;53405;57.012;40.984;2022-11-21T15:23:53;28.35;;;11.48;;
59390;SDS011;53405;57.012;40.984;2022-11-21T15:26:41;26.77;;;11.35;;
59390;SDS011;53405;57.012;40.984;2022-11-21T15:29:28;29.10;;;12.15;;
59390;SDS011;53405;57.012;40.984;2022-11-21T15:32:17;29.10;;;12.25;;
59390;SDS011;53405;57.012;40.984;2022-11-21T15:38:30;28.98;;;13.25;;
59390;SDS011;53405;57.012;40.984;2022-11-21T15:41:33;27.15;;;11.70;;
59390;SDS011;53405;57.012;40.984;2022-11-21T15:44:22;29.08;;;12.45;;
59390;SDS011;53405;57.012;40.984;2022-11-21T15:47:10;31.38;;;13.50;;
59390;SDS011;53405;57.012;40.984;2022-11-21T15:49:57;31.92;;;13.70;;
59390;SDS011;53405;57.012;40.984;2022-11-21T15:52:45;32.30;;;12.98;;
59390;SDS011;53405;57.012;40.984;2022-11-21T15:55:34;30.40;;;12.82;;
59390;SDS011;53405;57.012;40.984;2022-11-21T15:58:22;33.08;;;14.13;;
59390;SDS011;53405;57.012;40.984;2022-11-21T16:01:13;33.20;;;13.45;;
59390;SDS011;53405;57.012;40.984;2022-11-21T16:04:04;32.17;;;13.55;;
59390;SDS011;53405;57.012;40.984;2022-11-21T16:09:41;33.75;;;13.43;;
59390;SDS011;53405;57.012;40.984;2022-11-21T16:12:31;33.75;;;14.70;;
59390;SDS011;53405;57.012;40.984;2022-11-21T16:15:19;40.20;;;15.13;;
59390;SDS011;53405;57.012;40.984;2022-11-21T16:18:07;35.13;;;13.57;;
59390;SDS011;53405;57.012;40.984;2022-11-21T16:21:08;43.53;;;17.25;;
59390;SDS011;53405;57.012;40.984;2022-11-21T16:23:57;38.05;;;14.90;;
59390;SDS011;53405;57.012;40.984;2022-11-21T16:26:45;46.65;;;16.80;;
59390;SDS011;53405;57.012;40.984;2022-11-21T16:29:32;37.88;;;15.60;;
59390;SDS011;53405;57.012;40.984;2022-11-21T16:32:20;38.38;;;15.00;;
59390;SDS011;53405;57.012;40.984;2022-11-21T16:35:07;43.20;;;15.73;;
59390;SDS011;53405;57.012;40.984;2022-11-21T16:37:55;38.30;;;15.15;;
59390;SDS011;53405;57.012;40.984;2022-11-21T16:40:43;37.75;;;14.88;;
59390;SDS011;53405;57.012;40.984;2022-11-21T16:43:46;44.20;;;16.55;;
59390;SDS011;53405;57.012;40.984;2022-11-21T16:49:27;41.65;;;14.60;;
59390;SDS011;53405;57.012;40.984;2022-11-21T16:52:15;39.38;;;15.70;;
59390;SDS011;53405;57.012;40.984;2022-11-21T16:55:04;44.25;;;16.27;;
59390;SDS011;53405;57.012;40.984;2022-11-21T16:57:52;47.05;;;16.25;;
59390;SDS011;53405;57.012;40.984;2022-11-21T17:00:43;46.47;;;16.67;;
59390;SDS011;53405;57.012;40.984;2022-11-21T17:03:31;39.80;;;15.60;;
59390;SDS011;53405;57.012;40.984;2022-11-21T17:06:19;41.22;;;16.42;;
59390;SDS011;53405;57.012;40.984;2022-11-21T17:09:09;49.53;;;17.33;;
59390;SDS011;53405;57.012;40.984;2022-11-21T17:11:57;43.72;;;15.43;;
59390;SDS011;53405;57.012;40.984;2022-11-21T17:14:45;42.90;;;16.55;;
59390;SDS011;53405;57.012;40.984;2022-11-21T17:17:33;43.90;;;16.45;;
59390;SDS011;53405;57.012;40.984;2022-11-21T17:20:21;41.25;;;16.10;;
59390;SDS011;53405;57.012;40.984;2022-11-21T17:23:09;44.45;;;16.02;;
59390;SDS011;53405;57.012;40.984;2022-11-21T17:26:06;40.63;;;15.82;;
59390;SDS011;53405;57.012;40.984;2022-11-21T17:28:56;45.92;;;18.10;;
59390;SDS011;53405;57.012;40.984;2022-11-21T17:31:48;46.83;;;17.75;;
59390;SDS011;53405;57.012;40.984;2022-11-21T17:34:36;41.95;;;16.33;;
59390;SDS011;53405;57.012;40.984;2022-11-21T17:37:24;38.47;;;14.65;;
59390;SDS011;53405;57.012;40.984;2022-11-21T17:40:12;41.95;;;16.30;;
59390;SDS011;53405;57.012;40.984;2022-11-21T17:42:59;46.55;;;16.10;;
59390;SDS011;53405;57.012;40.984;2022-11-21T17:45:55;40.10;;;14.93;;
59390;SDS011;53405;57.012;40.984;2022-11-21T17:48:50;48.72;;;17.02;;
59390;SDS011;53405;57.012;40.984;2022-11-21T17:51:40;44.97;;;15.63;;
59390;SDS011;53405;57.012;40.984;2022-11-21T17:54:28;43.28;;;15.57;;
59390;SDS011;53405;57.012;40.984;2022-11-21T17:57:15;43.20;;;15.70;;
59390;SDS011;53405;57.012;40.984;2022-11-21T18:00:03;43.67;;;16.15;;
59390;SDS011;53405;57.012;40.984;2022-11-21T18:02:54;41.25;;;15.43;;
59390;SDS011;53405;57.012;40.984;2022-11-21T18:05:42;40.10;;;15.27;;
59390;SDS011;53405;57.012;40.984;2022-11-21T18:08:32;43.05;;;15.20;;
59390;SDS011;53405;57.012;40.984;2022-11-21T18:11:21;46.88;;;17.08;;
59390;SDS011;53405;57.012;40.984;2022-11-21T18:14:10;43.70;;;14.57;;
59390;SDS011;53405;57.012;40.984;2022-11-21T18:16:58;44.70;;;16.08;;
59390;SDS011;53405;57.012;40.984;2022-11-21T18:19:46;41.55;;;15.30;;
59390;SDS011;53405;57.012;40.984;2022-11-21T18:22:34;45.10;;;17.55;;
59390;SDS011;53405;57.012;40.984;2022-11-21T18:25:21;41.22;;;15.52;;
59390;SDS011;53405;57.012;40.984;2022-11-21T18:28:09;43.28;;;16.88;;
59390;SDS011;53405;57.012;40.984;2022-11-21T18:31:03;47.08;;;16.50;;
59390;SDS011;53405;57.012;40.984;2022-11-21T18:33:56;43.20;;;15.57;;